Airports Spain Alicante International Airport

Alicante International Airport (LEAL / ALC)

Facts about Alicante International Airport

Name Alicante International Airport
City Alicante
Country Spain
ICAO code LEAL
IATA code ALC
Elevation 43.2816 meters (142 feet)

Weather

METAR

Metar data retrieved Friday, 19 July 2024 at 23:25 UTC (25 minutes ago)

LEAL 192300Z 27004KT CAVOK 27/17 Q1014 NOSIG

Live traffic

Navigraph Charts (account required)